Time;durP1;ratioP1;P1;durP2;ratioP2;P2;SDS_P1;SDS_P2;PMS_P1;PMS_P2;Temp;Humidity;BMP_temperature;BMP_pressure;BME280_temperature;BME280_humidity;BME280_pressure;Samples;Min_cycle;Max_cycle;Signal;HPM_P1;HPM_P2
2023/12/03 00:00:54;;;;;;;54.23;23.07;;;-0.20;99.90;;;;;;5010042;28;20222;-51
2023/12/03 00:03:24;;;;;;;55.70;22.27;;;-0.20;99.90;;;;;;4992738;28;20222;-54
2023/12/03 00:05:54;;;;;;;56.33;22.17;;;-0.20;99.90;;;;;;5011055;28;20229;-52
2023/12/03 00:08:22;;;;;;;52.90;22.63;;;-0.20;99.90;;;;;;5005460;28;20222;-52
2023/12/03 00:11:00;;;;;;;59.77;23.70;;;-0.20;99.90;;;;;;5011445;28;20280;-54
2023/12/03 00:13:28;;;;;;;59.00;23.67;;;-0.20;99.90;;;;;;5003686;28;20201;-54
2023/12/03 00:15:57;;;;;;;60.63;23.93;;;-0.20;99.90;;;;;;5006486;28;20822;-54
2023/12/03 00:18:26;;;;;;;56.13;23.73;;;-0.30;99.90;;;;;;5009740;28;20264;-54
2023/12/03 00:20:55;;;;;;;62.07;24.30;;;-0.30;99.90;;;;;;5004946;28;20268;-53
2023/12/03 00:23:23;;;;;;;58.87;22.83;;;-0.30;99.90;;;;;;5008029;28;20304;-54
2023/12/03 00:25:51;;;;;;;66.43;24.83;;;-0.20;99.90;;;;;;5010844;28;20186;-53
2023/12/03 00:28:21;;;;;;;73.67;24.80;;;-0.30;99.90;;;;;;5009607;28;20197;-55
2023/12/03 00:30:50;;;;;;;62.90;23.87;;;-0.30;99.90;;;;;;5008972;28;20232;-54
2023/12/03 00:33:18;;;;;;;61.63;23.07;;;-0.40;99.90;;;;;;5009326;28;20222;-55
2023/12/03 00:35:47;;;;;;;60.80;22.43;;;-0.40;99.90;;;;;;5010130;28;20280;-55
2023/12/03 00:38:15;;;;;;;59.20;23.03;;;-0.40;99.90;;;;;;5009507;28;20218;-54
2023/12/03 00:40:43;;;;;;;69.37;24.50;;;-0.50;99.90;;;;;;5006687;28;20293;-54
2023/12/03 00:43:12;;;;;;;59.73;23.50;;;-0.50;99.90;;;;;;5008422;28;20226;-53
2023/12/03 00:45:42;;;;;;;63.77;24.30;;;-0.50;99.90;;;;;;5009548;28;20598;-55
2023/12/03 00:48:10;;;;;;;55.33;24.43;;;-0.60;99.90;;;;;;5009736;28;20241;-55
2023/12/03 00:50:38;;;;;;;58.60;23.17;;;-0.60;99.90;;;;;;5014062;28;20696;-54
2023/12/03 00:53:07;;;;;;;67.43;25.33;;;-0.50;99.90;;;;;;5012215;28;20880;-55
2023/12/03 00:55:35;;;;;;;60.93;23.40;;;-0.60;99.90;;;;;;5008954;28;20845;-53
2023/12/03 00:58:03;;;;;;;62.60;24.33;;;-0.50;99.90;;;;;;5012882;28;20317;-53
2023/12/03 01:00:31;;;;;;;54.17;22.77;;;-0.60;99.90;;;;;;5012873;28;20217;-56
2023/12/03 01:03:01;;;;;;;61.50;24.90;;;-0.60;99.90;;;;;;5014445;28;20222;-52
2023/12/03 01:05:30;;;;;;;68.00;25.10;;;-0.60;99.90;;;;;;5012269;28;20229;-54
2023/12/03 01:07:58;;;;;;;56.70;23.60;;;-0.60;99.90;;;;;;5014658;28;20649;-53
2023/12/03 01:10:26;;;;;;;62.73;24.27;;;-0.60;99.90;;;;;;4995293;28;20194;-53
2023/12/03 01:12:55;;;;;;;63.47;23.87;;;-0.60;99.90;;;;;;5013811;28;20225;-52
2023/12/03 01:15:23;;;;;;;58.97;22.90;;;-0.60;99.90;;;;;;5010189;28;20230;-53
2023/12/03 01:17:51;;;;;;;67.00;24.47;;;-0.70;99.90;;;;;;5012640;28;20221;-53
2023/12/03 01:20:21;;;;;;;72.63;24.87;;;-0.60;99.90;;;;;;5012633;28;20760;-51
2023/12/03 01:22:50;;;;;;;61.90;24.63;;;-0.70;99.90;;;;;;5008420;28;20214;-54
2023/12/03 01:25:18;;;;;;;69.27;24.90;;;-0.60;99.90;;;;;;5013743;28;20269;-54
2023/12/03 01:27:47;;;;;;;66.87;24.03;;;-0.60;99.90;;;;;;5014829;28;20233;-53
2023/12/03 01:30:15;;;;;;;63.87;24.77;;;-0.70;99.90;;;;;;5012343;28;20252;-54
2023/12/03 01:32:43;;;;;;;64.97;24.27;;;-0.60;99.90;;;;;;5014694;28;20775;-52
2023/12/03 01:35:12;;;;;;;65.73;24.87;;;-0.60;99.90;;;;;;5014672;28;20321;-53
2023/12/03 01:37:41;;;;;;;59.33;23.27;;;-0.70;99.90;;;;;;5012518;28;20186;-53
2023/12/03 01:40:11;;;;;;;68.60;25.03;;;-0.70;99.90;;;;;;5011369;28;20313;-55
2023/12/03 01:42:39;;;;;;;61.83;23.53;;;-0.70;99.90;;;;;;5006345;28;20313;-54
2023/12/03 01:45:08;;;;;;;64.13;24.93;;;-0.80;99.90;;;;;;5007692;28;20706;-55
2023/12/03 01:47:38;;;;;;;63.40;24.73;;;-0.80;99.90;;;;;;4994030;28;20228;-55
2023/12/03 01:50:08;;;;;;;63.47;24.00;;;-0.90;99.90;;;;;;5012946;28;20586;-54
2023/12/03 01:52:37;;;;;;;60.70;23.47;;;-0.90;99.90;;;;;;5012838;28;20197;-55
2023/12/03 01:55:08;;;;;;;68.57;24.90;;;-0.90;99.90;;;;;;5013068;28;20214;-55
2023/12/03 01:57:37;;;;;;;58.73;23.40;;;-0.90;99.90;;;;;;5012386;28;20237;-55
2023/12/03 02:00:07;;;;;;;64.27;24.97;;;-0.90;99.90;;;;;;5009401;28;20935;-53
2023/12/03 02:02:35;;;;;;;69.70;25.40;;;-1.00;99.90;;;;;;5011278;28;20280;-54
2023/12/03 02:05:03;;;;;;;65.10;23.83;;;-1.00;99.90;;;;;;5010855;28;20202;-54
2023/12/03 02:07:32;;;;;;;64.13;24.17;;;-1.00;99.90;;;;;;4993059;28;21996;-55
2023/12/03 02:10:00;;;;;;;67.67;23.17;;;-1.10;99.90;;;;;;5011763;28;20279;-56
2023/12/03 02:12:30;;;;;;;61.57;22.80;;;-1.10;99.90;;;;;;5012923;28;20214;-54
2023/12/03 02:14:58;;;;;;;70.67;25.90;;;-1.10;99.90;;;;;;5009896;28;20248;-55
2023/12/03 02:17:27;;;;;;;64.50;24.23;;;-1.10;99.90;;;;;;5008525;28;20218;-53
2023/12/03 02:19:56;;;;;;;64.03;24.13;;;-1.10;99.90;;;;;;5005750;28;20218;-55
2023/12/03 02:22:25;;;;;;;65.97;22.57;;;-1.10;99.90;;;;;;5012266;28;20194;-55
2023/12/03 02:24:54;;;;;;;66.13;24.17;;;-1.10;99.90;;;;;;5011069;28;20224;-56
2023/12/03 02:27:23;;;;;;;59.30;23.47;;;-1.10;99.90;;;;;;4991486;28;20214;-55
2023/12/03 02:29:54;;;;;;;62.57;23.97;;;-1.10;99.90;;;;;;5009283;28;20711;-55
2023/12/03 02:32:22;;;;;;;63.33;24.87;;;-1.00;99.90;;;;;;5008161;28;20221;-53
2023/12/03 02:34:50;;;;;;;64.93;24.50;;;-1.10;99.90;;;;;;5011971;28;21101;-56
2023/12/03 02:37:18;;;;;;;72.43;24.73;;;-1.10;99.90;;;;;;5010648;28;20190;-55
2023/12/03 02:39:46;;;;;;;67.47;23.63;;;-1.10;99.90;;;;;;5011308;28;20214;-55
2023/12/03 02:42:16;;;;;;;62.87;23.57;;;-1.10;99.90;;;;;;5011157;28;20708;-55
2023/12/03 02:44:44;;;;;;;63.70;23.83;;;-1.00;99.90;;;;;;5012076;28;20308;-56
2023/12/03 02:47:13;;;;;;;69.50;24.30;;;-1.00;99.90;;;;;;5011659;28;20332;-55
2023/12/03 02:49:41;;;;;;;72.87;26.20;;;-0.90;99.90;;;;;;5011797;28;20704;-56
2023/12/03 02:52:10;;;;;;;59.73;23.53;;;-0.90;99.90;;;;;;5011309;28;20218;-56
2023/12/03 02:54:39;;;;;;;65.83;24.00;;;-0.80;99.90;;;;;;5011631;28;20309;-54
2023/12/03 02:57:07;;;;;;;70.13;25.13;;;-0.80;99.90;;;;;;5014081;28;20245;-54
2023/12/03 02:59:37;;;;;;;69.87;25.17;;;-0.80;99.90;;;;;;5008017;28;20802;-55
2023/12/03 03:02:05;;;;;;;63.33;24.03;;;-0.70;99.90;;;;;;5011133;28;20633;-55
2023/12/03 03:04:33;;;;;;;66.27;24.93;;;-0.70;99.90;;;;;;5006174;28;20237;-54
2023/12/03 03:07:01;;;;;;;60.37;24.13;;;-0.70;99.90;;;;;;5010667;28;20214;-56
2023/12/03 03:09:30;;;;;;;70.80;25.50;;;-0.70;99.90;;;;;;5011284;28;20225;-56
2023/12/03 03:11:58;;;;;;;68.50;24.80;;;-0.80;99.90;;;;;;5009206;28;20213;-55
2023/12/03 03:14:26;;;;;;;62.67;24.27;;;-0.70;99.90;;;;;;5010157;28;20221;-56
2023/12/03 03:16:56;;;;;;;61.77;23.90;;;-0.70;99.90;;;;;;4997645;28;20717;-56
2023/12/03 03:19:24;;;;;;;66.03;24.17;;;-0.80;99.90;;;;;;5009166;28;20285;-56
2023/12/03 03:21:52;;;;;;;68.97;24.00;;;-0.80;99.90;;;;;;5010495;28;20221;-56
2023/12/03 03:24:23;;;;;;;64.00;23.37;;;-0.80;99.90;;;;;;5009868;28;20218;-56
2023/12/03 03:26:52;;;;;;;77.37;26.00;;;-0.80;99.90;;;;;;5009666;28;20245;-55
2023/12/03 03:29:20;;;;;;;61.00;23.67;;;-0.80;99.90;;;;;;5007840;28;20229;-54
2023/12/03 03:31:48;;;;;;;65.93;25.27;;;-0.80;99.90;;;;;;5010407;28;20190;-53
2023/12/03 03:34:18;;;;;;;68.50;24.87;;;-0.70;99.90;;;;;;5010154;28;20292;-55
2023/12/03 03:36:46;;;;;;;62.47;24.23;;;-0.70;99.90;;;;;;5007840;28;20214;-56
2023/12/03 03:39:14;;;;;;;66.97;25.03;;;-0.70;99.90;;;;;;5012040;28;20688;-55
2023/12/03 03:41:43;;;;;;;72.23;24.57;;;-0.80;99.90;;;;;;5011206;28;20591;-55
2023/12/03 03:44:12;;;;;;;63.07;24.87;;;-0.80;99.90;;;;;;5015043;28;20228;-56
2023/12/03 03:46:41;;;;;;;62.30;22.87;;;-0.80;99.90;;;;;;5009672;28;20181;-55
2023/12/03 03:49:09;;;;;;;61.17;23.50;;;-0.70;99.90;;;;;;5011546;28;20226;-56
2023/12/03 03:51:39;;;;;;;65.77;23.40;;;-0.70;99.90;;;;;;5010134;28;20222;-55
2023/12/03 03:54:07;;;;;;;61.23;23.87;;;-0.70;99.90;;;;;;5009944;28;20222;-56
2023/12/03 03:56:35;;;;;;;62.83;23.07;;;-0.70;99.90;;;;;;5011445;28;20241;-56
2023/12/03 03:59:03;;;;;;;61.90;23.57;;;-0.70;99.90;;;;;;5009243;28;20692;-54
2023/12/03 04:01:32;;;;;;;61.90;24.07;;;-0.70;99.90;;;;;;5006941;28;20189;-56
2023/12/03 04:04:00;;;;;;;59.33;22.90;;;-0.70;99.90;;;;;;5009907;28;20222;-56
2023/12/03 04:06:28;;;;;;;63.63;23.83;;;-0.70;99.90;;;;;;5008919;28;20214;-55
2023/12/03 04:08:58;;;;;;;61.00;22.90;;;-0.80;99.90;;;;;;5010472;28;20301;-54
2023/12/03 04:11:26;;;;;;;69.17;24.20;;;-0.70;99.90;;;;;;5007291;28;20228;-52
2023/12/03 04:13:54;;;;;;;62.33;22.93;;;-0.70;99.90;;;;;;5005612;28;20197;-55
2023/12/03 04:16:24;;;;;;;59.50;23.27;;;-0.80;99.90;;;;;;5011530;28;20214;-55
2023/12/03 04:18:52;;;;;;;63.87;23.47;;;-0.70;99.90;;;;;;5010302;28;22054;-55
2023/12/03 04:21:21;;;;;;;63.43;23.63;;;-0.80;99.90;;;;;;5008216;28;20340;-55
2023/12/03 04:23:49;;;;;;;60.80;23.13;;;-0.80;99.90;;;;;;5011072;28;20707;-55
2023/12/03 04:26:18;;;;;;;61.80;23.07;;;-0.70;99.90;;;;;;5012468;28;20213;-55
2023/12/03 04:28:47;;;;;;;57.77;22.43;;;-0.70;99.90;;;;;;5011958;28;20340;-56
2023/12/03 04:31:21;;;;;;;60.77;22.53;;;-0.70;99.90;;;;;;5014078;28;20214;-56
2023/12/03 04:33:50;;;;;;;58.23;22.43;;;-0.70;99.90;;;;;;5013001;28;20224;-55
2023/12/03 04:36:19;;;;;;;57.57;22.70;;;-0.70;99.90;;;;;;5013042;28;20226;-56
2023/12/03 04:38:47;;;;;;;59.73;23.13;;;-0.70;99.90;;;;;;5014608;28;20847;-57
2023/12/03 04:41:16;;;;;;;60.17;23.63;;;-0.70;99.90;;;;;;5014020;28;20606;-55
2023/12/03 04:43:46;;;;;;;56.07;21.87;;;-0.70;99.90;;;;;;5013227;28;20190;-56
2023/12/03 04:46:14;;;;;;;60.10;22.90;;;-0.70;99.90;;;;;;5014800;28;20734;-56
2023/12/03 04:48:42;;;;;;;63.33;22.90;;;-0.70;99.90;;;;;;5011360;28;20229;-53
2023/12/03 04:51:13;;;;;;;58.40;21.67;;;-0.70;99.90;;;;;;5010018;28;20221;-56
2023/12/03 04:53:41;;;;;;;58.40;22.03;;;-0.70;99.90;;;;;;5012492;28;20309;-56
2023/12/03 04:56:10;;;;;;;56.93;21.47;;;-0.70;99.90;;;;;;5012173;28;20243;-55
2023/12/03 04:58:39;;;;;;;52.60;22.30;;;-0.70;99.90;;;;;;5012252;28;20187;-56
2023/12/03 05:01:08;;;;;;;58.93;22.07;;;-0.60;99.90;;;;;;5010280;28;20258;-56
2023/12/03 05:03:36;;;;;;;55.27;21.53;;;-0.70;99.90;;;;;;5011442;28;20220;-54
2023/12/03 05:06:05;;;;;;;57.80;21.40;;;-0.70;99.90;;;;;;5012487;28;20218;-56
2023/12/03 05:08:34;;;;;;;56.60;20.60;;;-0.70;99.90;;;;;;5012449;28;20222;-55
2023/12/03 05:11:04;;;;;;;54.70;21.33;;;-0.70;99.90;;;;;;5008945;28;20276;-56
2023/12/03 05:13:33;;;;;;;56.80;21.60;;;-0.80;99.90;;;;;;5009532;28;20281;-56
2023/12/03 05:16:02;;;;;;;49.67;20.50;;;-0.90;99.90;;;;;;5011562;28;21398;-55
2023/12/03 05:18:32;;;;;;;49.77;21.07;;;-0.90;99.90;;;;;;5012074;28;20251;-56
2023/12/03 05:21:00;;;;;;;60.07;21.10;;;-1.00;99.90;;;;;;5011952;28;20230;-55
2023/12/03 05:23:29;;;;;;;52.90;21.23;;;-1.00;99.90;;;;;;5014709;28;20298;-56
2023/12/03 05:25:58;;;;;;;53.90;20.93;;;-0.90;99.90;;;;;;5009912;28;20190;-54
2023/12/03 05:28:26;;;;;;;47.83;19.77;;;-1.00;99.90;;;;;;5005411;28;20686;-54
2023/12/03 05:30:55;;;;;;;58.13;21.97;;;-0.90;99.90;;;;;;5011821;28;20653;-55
2023/12/03 05:33:23;;;;;;;57.60;20.40;;;-1.00;99.90;;;;;;4993707;28;20214;-56
2023/12/03 05:35:53;;;;;;;57.67;22.43;;;-1.00;99.90;;;;;;5010543;28;20276;-56
2023/12/03 05:38:21;;;;;;;57.27;21.03;;;-1.00;99.90;;;;;;5013259;28;20241;-55
2023/12/03 05:40:49;;;;;;;54.47;21.57;;;-1.10;99.90;;;;;;5011816;28;20192;-55
2023/12/03 05:43:17;;;;;;;44.53;19.33;;;-1.10;99.90;;;;;;5008600;28;20209;-57
2023/12/03 05:45:48;;;;;;;53.47;20.67;;;-1.10;99.90;;;;;;5008244;28;20229;-57
2023/12/03 05:48:16;;;;;;;52.28;20.33;;;-1.10;99.90;;;;;;5008073;28;20415;-56
2023/12/03 05:50:45;;;;;;;51.13;20.30;;;-1.10;99.90;;;;;;5011581;28;20305;-57
2023/12/03 05:53:14;;;;;;;52.80;19.30;;;-1.10;99.90;;;;;;5011271;28;20225;-56
2023/12/03 05:55:42;;;;;;;48.10;19.90;;;-1.10;99.90;;;;;;5016218;28;20194;-57
2023/12/03 05:58:11;;;;;;;48.00;19.10;;;-1.10;99.90;;;;;;5010150;28;20226;-55
2023/12/03 06:00:39;;;;;;;50.53;20.23;;;-1.10;99.90;;;;;;5012660;28;20222;-56
2023/12/03 06:03:08;;;;;;;49.57;19.17;;;-1.20;99.90;;;;;;5010520;28;20226;-57
2023/12/03 06:05:36;;;;;;;51.23;18.80;;;-1.20;99.90;;;;;;5010524;28;20229;-55
2023/12/03 06:08:04;;;;;;;44.27;18.77;;;-1.10;99.90;;;;;;5012667;28;20186;-56
2023/12/03 06:10:34;;;;;;;45.40;18.70;;;-1.10;99.90;;;;;;5011193;28;20193;-56
2023/12/03 06:13:02;;;;;;;44.63;17.77;;;-1.10;99.90;;;;;;5009141;28;20222;-55
2023/12/03 06:15:30;;;;;;;44.13;17.63;;;-1.00;99.90;;;;;;5012878;28;20676;-57
2023/12/03 06:17:59;;;;;;;40.00;17.03;;;-0.90;99.90;;;;;;5010893;28;20299;-56
2023/12/03 06:20:27;;;;;;;43.70;17.80;;;-0.90;99.90;;;;;;5007350;28;20276;-56
2023/12/03 06:22:56;;;;;;;43.80;17.73;;;-0.90;99.90;;;;;;5010945;28;20186;-56
2023/12/03 06:25:24;;;;;;;40.47;16.97;;;-0.90;99.90;;;;;;5012134;28;20201;-54
2023/12/03 06:27:54;;;;;;;40.73;17.00;;;-0.90;99.90;;;;;;5007438;28;20588;-56
2023/12/03 06:30:22;;;;;;;43.73;17.87;;;-0.90;99.90;;;;;;5010866;28;20221;-57
2023/12/03 06:32:50;;;;;;;45.60;18.60;;;-0.90;99.90;;;;;;5013219;28;20221;-55
2023/12/03 06:35:19;;;;;;;40.03;17.60;;;-1.00;99.90;;;;;;5006706;28;20704;-56
2023/12/03 06:37:47;;;;;;;38.07;16.80;;;-1.00;99.90;;;;;;5010179;28;20209;-56
2023/12/03 06:40:16;;;;;;;36.37;16.53;;;-1.00;99.90;;;;;;5011042;28;20699;-55
2023/12/03 06:42:44;;;;;;;43.97;17.87;;;-1.10;99.90;;;;;;5011313;28;20225;-54
2023/12/03 06:45:15;;;;;;;47.10;18.27;;;-1.00;99.90;;;;;;5011315;28;20250;-54
2023/12/03 06:47:43;;;;;;;42.87;17.07;;;-1.00;99.90;;;;;;5007855;28;20202;-56
2023/12/03 06:50:11;;;;;;;50.67;17.93;;;-1.00;99.90;;;;;;5010729;28;20230;-55
2023/12/03 06:52:39;;;;;;;41.20;16.90;;;-0.90;99.90;;;;;;5011599;28;20201;-56
2023/12/03 06:55:08;;;;;;;40.50;17.13;;;-0.90;99.90;;;;;;4993377;28;20256;-56
2023/12/03 06:57:36;;;;;;;39.40;16.40;;;-0.80;99.90;;;;;;5006676;28;20241;-54
2023/12/03 07:00:06;;;;;;;40.17;16.60;;;-0.80;99.90;;;;;;5005572;28;20230;-55
2023/12/03 07:02:37;;;;;;;39.80;16.90;;;-0.80;99.90;;;;;;5008829;28;20249;-56
2023/12/03 07:05:07;;;;;;;36.83;16.37;;;-0.80;99.90;;;;;;5008548;28;20292;-56
2023/12/03 07:07:38;;;;;;;39.57;16.77;;;-0.80;99.90;;;;;;5007714;28;20656;-53
2023/12/03 07:10:08;;;;;;;41.47;16.47;;;-0.70;99.90;;;;;;5008760;28;20318;-55
2023/12/03 07:12:36;;;;;;;35.93;16.00;;;-0.70;99.90;;;;;;5007500;28;20309;-56
2023/12/03 07:15:06;;;;;;;42.27;16.93;;;-0.70;99.90;;;;;;4997499;28;20272;-57
2023/12/03 07:17:35;;;;;;;39.70;16.00;;;-0.70;99.90;;;;;;5010823;28;20222;-55
2023/12/03 07:20:05;;;;;;;39.93;16.53;;;-0.70;99.90;;;;;;5008820;28;20225;-57
2023/12/03 07:22:33;;;;;;;40.80;16.70;;;-0.60;99.90;;;;;;5013822;28;20260;-55
2023/12/03 07:25:02;;;;;;;38.63;16.50;;;-0.60;99.90;;;;;;4994057;28;20694;-56
2023/12/03 07:27:30;;;;;;;38.43;16.30;;;-0.60;99.90;;;;;;5006600;28;20240;-56
2023/12/03 07:29:59;;;;;;;44.53;16.60;;;-0.50;99.90;;;;;;5009196;28;20312;-56
2023/12/03 07:32:27;;;;;;;38.40;16.53;;;-0.50;99.90;;;;;;5007873;28;20217;-55
2023/12/03 07:34:57;;;;;;;39.87;15.37;;;-0.50;99.90;;;;;;5011091;28;20293;-55
2023/12/03 07:37:25;;;;;;;38.10;16.40;;;-0.50;99.90;;;;;;5010216;28;20205;-54
2023/12/03 07:39:53;;;;;;;37.10;15.83;;;-0.50;99.90;;;;;;5013642;28;20236;-56
2023/12/03 07:42:22;;;;;;;38.57;16.37;;;-0.40;99.90;;;;;;5010926;28;20225;-55
2023/12/03 07:44:50;;;;;;;33.93;14.83;;;-0.40;99.90;;;;;;5010201;28;20704;-57
2023/12/03 07:47:18;;;;;;;32.93;14.97;;;-0.30;99.90;;;;;;5009582;28;20245;-55
2023/12/03 07:49:47;;;;;;;33.27;15.17;;;-0.30;99.90;;;;;;5010981;28;20209;-54
2023/12/03 07:52:16;;;;;;;33.57;15.23;;;-0.30;99.90;;;;;;5005447;28;20215;-56
2023/12/03 07:54:45;;;;;;;34.27;14.77;;;-0.30;99.90;;;;;;5008449;28;20230;-55
2023/12/03 07:57:13;;;;;;;31.97;14.33;;;-0.20;99.90;;;;;;5010005;28;20238;-57
2023/12/03 07:59:42;;;;;;;34.10;15.13;;;-0.10;99.90;;;;;;5008159;28;20226;-54
2023/12/03 08:02:10;;;;;;;38.03;15.20;;;-0.10;99.90;;;;;;5013060;28;20226;-56
2023/12/03 08:04:38;;;;;;;31.10;14.07;;;-0.10;99.90;;;;;;5014124;28;20233;-56
2023/12/03 08:07:07;;;;;;;33.67;14.40;;;-0.10;99.90;;;;;;5014095;28;20218;-53
2023/12/03 08:09:36;;;;;;;34.03;14.37;;;-0.10;99.90;;;;;;5012599;28;20229;-56
2023/12/03 08:12:05;;;;;;;29.73;14.57;;;-0.10;99.90;;;;;;5011369;28;20217;-57
2023/12/03 08:14:33;;;;;;;29.03;13.47;;;0.00;99.90;;;;;;5009633;28;20557;-55
2023/12/03 08:17:06;;;;;;;34.37;14.00;;;0.10;99.90;;;;;;5013794;28;20209;-55
2023/12/03 08:19:34;;;;;;;28.97;13.13;;;0.10;99.90;;;;;;5013377;28;20202;-56
2023/12/03 08:22:05;;;;;;;32.50;14.27;;;0.10;99.90;;;;;;5011249;28;20233;-56
2023/12/03 08:24:35;;;;;;;31.33;13.63;;;0.10;99.90;;;;;;4993026;28;20214;-57
2023/12/03 08:27:04;;;;;;;33.00;13.87;;;0.10;99.90;;;;;;5009951;28;20240;-56
2023/12/03 08:29:33;;;;;;;32.57;13.00;;;0.20;99.90;;;;;;5012412;28;20218;-55
2023/12/03 08:32:04;;;;;;;34.27;13.90;;;0.20;99.90;;;;;;5010759;28;20209;-56
2023/12/03 08:34:32;;;;;;;29.70;13.70;;;0.20;99.90;;;;;;5008917;28;20194;-57
2023/12/03 08:37:01;;;;;;;29.63;14.10;;;0.30;99.90;;;;;;5013275;28;20689;-56
2023/12/03 08:39:39;;;;;;;34.33;14.23;;;0.30;99.90;;;;;;5013303;28;20225;-55
2023/12/03 08:42:08;;;;;;;32.93;14.23;;;0.30;99.90;;;;;;5010243;28;20225;-56
2023/12/03 08:44:37;;;;;;;26.60;13.00;;;0.30;99.90;;;;;;4996055;28;20245;-56
2023/12/03 08:47:05;;;;;;;30.17;13.90;;;0.40;98.20;;;;;;4992827;28;20700;-58
2023/12/03 08:49:33;;;;;;;33.10;14.57;;;0.30;99.70;;;;;;5013118;28;20206;-55
2023/12/03 08:52:02;;;;;;;30.80;14.30;;;0.40;99.90;;;;;;5015484;28;20263;-57
2023/12/03 08:54:33;;;;;;;31.57;15.07;;;0.40;99.90;;;;;;4994796;28;20214;-55
2023/12/03 08:57:03;;;;;;;32.70;14.93;;;0.40;99.90;;;;;;5008245;28;20234;-55
2023/12/03 08:59:32;;;;;;;32.47;15.17;;;0.40;99.90;;;;;;5010704;28;20222;-56
2023/12/03 09:02:00;;;;;;;30.20;14.03;;;0.40;99.90;;;;;;5012721;28;20198;-55
2023/12/03 09:04:28;;;;;;;32.27;14.33;;;0.50;99.90;;;;;;5008091;28;20234;-57
2023/12/03 09:06:56;;;;;;;32.10;13.93;;;0.50;99.40;;;;;;5010985;28;20214;-53
2023/12/03 09:09:24;;;;;;;37.67;13.57;;;0.50;98.00;;;;;;5005484;28;20210;-53
2023/12/03 09:11:53;;;;;;;32.10;14.70;;;0.50;97.10;;;;;;5012554;28;20228;-56
2023/12/03 09:14:25;;;;;;;31.97;14.07;;;0.50;95.40;;;;;;5013122;28;20228;-56
2023/12/03 09:16:53;;;;;;;33.87;14.23;;;0.60;96.00;;;;;;5009716;28;20190;-55
2023/12/03 09:19:21;;;;;;;32.27;14.50;;;0.60;95.00;;;;;;5013125;28;20236;-54
2023/12/03 09:21:50;;;;;;;34.20;15.00;;;0.60;95.00;;;;;;5011123;28;20214;-57
2023/12/03 09:24:19;;;;;;;33.40;14.03;;;0.60;93.40;;;;;;5014256;28;20218;-56
2023/12/03 09:26:47;;;;;;;34.00;14.33;;;0.60;94.90;;;;;;5008617;28;20213;-56
2023/12/03 09:29:15;;;;;;;29.77;13.67;;;0.60;91.70;;;;;;5009005;28;20252;-55
2023/12/03 09:31:45;;;;;;;33.60;14.03;;;0.70;94.10;;;;;;5011391;28;20189;-55
2023/12/03 09:34:13;;;;;;;34.93;13.63;;;0.70;92.70;;;;;;4987113;28;20463;-55
2023/12/03 09:36:41;;;;;;;32.23;14.23;;;0.80;92.10;;;;;;5007966;28;20314;-55
2023/12/03 09:39:10;;;;;;;29.70;13.90;;;0.80;89.30;;;;;;5010180;28;20707;-55
2023/12/03 09:41:45;;;;;;;29.33;13.73;;;0.90;89.00;;;;;;5010574;28;20240;-56
2023/12/03 09:44:21;;;;;;;30.03;13.70;;;0.90;86.60;;;;;;5008023;28;20579;-56
2023/12/03 09:46:52;;;;;;;31.70;13.50;;;0.90;88.20;;;;;;5009564;28;20202;-55
2023/12/03 09:49:23;;;;;;;33.53;14.17;;;0.90;88.70;;;;;;5008055;28;20278;-56
2023/12/03 09:51:52;;;;;;;27.90;12.90;;;0.90;84.50;;;;;;5006332;28;20222;-55
2023/12/03 09:54:21;;;;;;;28.40;13.43;;;0.90;82.40;;;;;;5006401;28;20218;-55
2023/12/03 09:56:56;;;;;;;32.87;14.33;;;1.00;80.10;;;;;;5009112;28;20253;-53
2023/12/03 09:59:24;;;;;;;34.53;14.10;;;1.00;82.90;;;;;;5008903;28;20229;-55
2023/12/03 10:01:56;;;;;;;27.43;13.43;;;1.10;81.70;;;;;;4987512;28;20190;-55
2023/12/03 10:04:24;;;;;;;29.73;13.27;;;1.20;83.30;;;;;;5004770;28;20209;-55
2023/12/03 10:06:57;;;;;;;27.13;13.07;;;1.20;71.80;;;;;;5005657;28;20234;-55
2023/12/03 10:09:27;;;;;;;36.20;14.97;;;1.30;66.10;;;;;;5009703;28;20303;-56
2023/12/03 10:12:01;;;;;;;37.03;14.60;;;1.30;67.00;;;;;;5009214;28;20221;-53
2023/12/03 10:14:29;;;;;;;28.80;13.63;;;1.40;68.50;;;;;;5005876;28;20877;-54
2023/12/03 10:16:59;;;;;;;31.13;13.33;;;1.40;60.10;;;;;;5007878;28;20186;-55
2023/12/03 10:19:28;;;;;;;28.67;13.10;;;1.40;59.50;;;;;;5007471;28;20292;-55
2023/12/03 10:21:59;;;;;;;26.20;12.57;;;1.40;65.80;;;;;;5009291;28;20222;-55
2023/12/03 10:24:27;;;;;;;31.63;13.73;;;1.40;65.60;;;;;;5009840;28;20225;-55
2023/12/03 10:26:59;;;;;;;27.63;13.37;;;1.40;64.40;;;;;;5009740;28;20827;-52
2023/12/03 10:29:30;;;;;;;30.83;13.97;;;1.40;66.80;;;;;;5003218;28;20217;-55
2023/12/03 10:32:02;;;;;;;28.20;12.83;;;1.40;67.80;;;;;;5007168;28;20208;-54
2023/12/03 10:34:30;;;;;;;31.83;13.87;;;1.40;65.40;;;;;;5008780;28;20765;-54
2023/12/03 10:37:01;;;;;;;28.80;14.07;;;1.40;70.30;;;;;;5005032;28;20264;-55
2023/12/03 10:39:31;;;;;;;29.93;13.80;;;1.50;71.50;;;;;;4990618;28;20226;-55
2023/12/03 10:42:00;;;;;;;27.83;13.23;;;1.50;65.50;;;;;;5004413;28;20271;-54
2023/12/03 10:44:28;;;;;;;32.93;13.23;;;1.60;67.10;;;;;;5008707;28;20221;-54
2023/12/03 10:46:57;;;;;;;28.07;13.87;;;1.60;65.30;;;;;;5007883;28;20637;-56
2023/12/03 10:49:29;;;;;;;27.43;13.10;;;1.70;66.70;;;;;;5008990;28;20636;-56
2023/12/03 10:51:58;;;;;;;27.13;12.30;;;1.70;59.60;;;;;;5010022;28;20218;-55
2023/12/03 10:54:27;;;;;;;28.40;13.27;;;1.80;58.40;;;;;;5006896;28;20933;-55
2023/12/03 10:56:56;;;;;;;34.43;13.03;;;1.80;50.40;;;;;;5006837;28;20230;-54
2023/12/03 10:59:28;;;;;;;28.97;13.13;;;1.80;45.50;;;;;;5005710;28;20745;-55
2023/12/03 11:02:02;;;;;;;27.23;13.47;;;1.90;45.40;;;;;;4985029;28;20653;-55
2023/12/03 11:04:39;;;;;;;30.93;13.27;;;1.80;44.80;;;;;;5009666;28;20201;-55
2023/12/03 11:07:08;;;;;;;25.20;12.47;;;1.80;48.40;;;;;;5007061;28;20225;-55
2023/12/03 11:09:39;;;;;;;27.93;12.93;;;1.80;46.30;;;;;;5003377;28;20222;-55
2023/12/03 11:12:13;;;;;;;31.50;12.90;;;1.80;55.90;;;;;;5007848;28;20218;-53
2023/12/03 11:14:44;;;;;;;26.87;12.57;;;1.70;61.20;;;;;;5011014;28;20304;-55
2023/12/03 11:17:18;;;;;;;30.33;13.53;;;1.70;65.00;;;;;;5006441;28;20237;-53
2023/12/03 11:19:52;;;;;;;27.20;12.63;;;1.70;68.30;;;;;;4991407;28;20264;-56
2023/12/03 11:22:49;;;;;;;25.43;11.40;;;1.60;71.80;;;;;;5006106;28;20268;-55
2023/12/03 11:25:24;;;;;;;29.63;12.13;;;1.60;77.60;;;;;;4984350;28;20305;-55
2023/12/03 11:27:53;;;;;;;22.37;9.93;;;1.60;72.40;;;;;;5010038;28;20248;-56
2023/12/03 11:30:40;;;;;;;26.50;11.87;;;1.60;75.50;;;;;;5009827;28;20222;-55
2023/12/03 11:33:11;;;;;;;26.13;12.27;;;1.50;86.90;;;;;;5010355;28;20324;-53
2023/12/03 11:35:43;;;;;;;22.97;11.50;;;1.50;94.40;;;;;;4991183;28;20300;-55
2023/12/03 11:38:16;;;;;;;27.90;12.37;;;1.50;97.50;;;;;;5006853;28;20301;-56
2023/12/03 11:40:44;;;;;;;25.20;11.17;;;1.50;99.90;;;;;;5007828;28;20209;-54
2023/12/03 11:43:24;;;;;;;26.87;12.03;;;1.50;99.20;;;;;;5005441;28;20245;-56
2023/12/03 11:45:53;;;;;;;24.23;11.67;;;1.50;99.90;;;;;;5010424;28;20227;-54
2023/12/03 11:48:22;;;;;;;24.63;12.33;;;1.50;99.90;;;;;;5005966;28;20313;-54
2023/12/03 11:50:51;;;;;;;26.47;12.90;;;1.50;99.90;;;;;;5011212;28;20225;-54
2023/12/03 11:53:33;;;;;;;29.17;12.67;;;1.60;99.90;;;;;;5011007;28;20715;-54
2023/12/03 11:56:02;;;;;;;28.43;12.90;;;1.50;99.90;;;;;;5008708;28;20217;-56
2023/12/03 11:58:31;;;;;;;32.53;14.03;;;1.30;99.90;;;;;;5011783;28;20237;-54
2023/12/03 12:00:59;;;;;;;31.17;13.37;;;1.20;99.90;;;;;;5010220;28;20312;-55
2023/12/03 12:03:27;;;;;;;38.27;14.57;;;1.10;99.90;;;;;;5010685;28;20278;-57
2023/12/03 12:05:58;;;;;;;33.63;14.60;;;1.10;99.90;;;;;;5006930;28;20225;-55
2023/12/03 12:08:27;;;;;;;34.23;14.40;;;1.10;99.90;;;;;;5008964;28;20288;-53
2023/12/03 12:10:55;;;;;;;32.00;14.00;;;1.10;99.90;;;;;;5007639;28;20293;-54
2023/12/03 12:13:23;;;;;;;29.63;13.23;;;1.10;99.90;;;;;;5004838;28;20194;-52
2023/12/03 12:15:55;;;;;;;31.10;13.13;;;1.10;99.90;;;;;;5008198;28;20720;-56
2023/12/03 12:18:23;;;;;;;32.60;13.70;;;1.10;99.90;;;;;;5008574;28;20609;-51
2023/12/03 12:20:52;;;;;;;29.43;12.77;;;1.10;99.90;;;;;;5010603;28;20218;-54
2023/12/03 12:23:22;;;;;;;29.37;13.47;;;1.20;99.90;;;;;;4994333;28;20318;-55
2023/12/03 12:25:50;;;;;;;32.43;14.50;;;1.20;99.90;;;;;;5009306;28;20187;-54
2023/12/03 12:28:18;;;;;;;34.07;13.30;;;1.30;99.90;;;;;;5007778;28;20194;-53
2023/12/03 12:30:47;;;;;;;34.50;15.00;;;1.30;99.90;;;;;;5006902;28;20568;-53
2023/12/03 12:33:15;;;;;;;31.57;14.47;;;1.30;99.90;;;;;;5009328;28;20576;-53
2023/12/03 12:35:44;;;;;;;27.40;12.60;;;1.30;99.90;;;;;;5010391;28;20221;-54
2023/12/03 12:38:12;;;;;;;30.63;13.47;;;1.20;99.90;;;;;;5003461;28;20692;-54
2023/12/03 12:40:52;;;;;;;29.57;13.80;;;1.20;99.90;;;;;;5003674;28;20203;-56